Time;durP1;ratioP1;P1;durP2;ratioP2;P2;SDS_P1;SDS_P2;PMS_P1;PMS_P2;Temp;Humidity;BMP_temperature;BMP_pressure;BME280_temperature;BME280_humidity;BME280_pressure;Samples;Min_cycle;Max_cycle;Signal;HPM_P1;HPM_P2
2022/03/03 00:02:15;;;;;;;78.20;39.60;;;2.10;99.90;;;;;;2099657;68;20179;-76
2022/03/03 00:04:57;;;;;;;74.85;38.08;;;2.20;99.90;;;;;;2106481;67;20348;-76
2022/03/03 00:07:38;;;;;;;73.65;38.53;;;2.50;99.90;;;;;;2109372;67;20319;-75
2022/03/03 00:10:23;;;;;;;72.57;38.00;;;2.10;99.90;;;;;;2110267;67;20334;-75
2022/03/03 00:13:06;;;;;;;75.93;38.80;;;2.10;99.90;;;;;;2098986;68;20194;-76
2022/03/03 00:15:53;;;;;;;73.25;37.67;;;2.10;99.90;;;;;;2093668;68;20205;-75
2022/03/03 00:18:37;;;;;;;79.00;39.92;;;2.10;99.90;;;;;;2106188;67;20327;-76
2022/03/03 00:21:19;;;;;;;75.90;40.33;;;2.60;99.90;;;;;;2118467;67;20233;-76
2022/03/03 00:24:00;;;;;;;83.70;40.38;;;2.00;99.90;;;;;;2110195;67;20343;-75
2022/03/03 00:26:43;;;;;;;77.75;38.90;;;2.00;99.90;;;;;;2111671;67;20173;-73
2022/03/03 00:29:25;;;;;;;71.88;38.72;;;2.00;99.90;;;;;;2114072;67;20181;-75
2022/03/03 00:32:13;;;;;;;70.85;37.60;;;2.00;99.90;;;;;;2114036;67;20243;-76
2022/03/03 00:35:00;;;;;;;73.70;36.72;;;1.90;99.90;;;;;;2106870;67;20704;-75
2022/03/03 00:37:42;;;;;;;78.00;37.50;;;1.90;99.90;;;;;;2091365;68;20254;-76
2022/03/03 00:40:24;;;;;;;77.22;38.72;;;1.90;99.90;;;;;;2077820;68;20244;-75
2022/03/03 00:43:06;;;;;;;76.50;39.00;;;1.90;99.90;;;;;;2071430;68;20406;-76
2022/03/03 00:45:48;;;;;;;77.40;39.33;;;1.80;99.90;;;;;;2084170;68;20333;-76
2022/03/03 00:48:30;;;;;;;71.40;39.30;;;1.80;99.90;;;;;;2096585;68;20425;-74
2022/03/03 00:51:12;;;;;;;77.78;38.20;;;1.80;99.90;;;;;;2097236;68;20234;-76
2022/03/03 00:53:54;;;;;;;85.13;40.63;;;1.70;99.90;;;;;;2097986;68;20178;-75
2022/03/03 00:56:36;;;;;;;69.75;37.78;;;1.70;99.90;;;;;;2092920;68;20167;-76
2022/03/03 00:59:19;;;;;;;69.85;38.40;;;1.70;99.90;;;;;;2084581;68;20203;-76
2022/03/03 01:02:05;;;;;;;72.90;38.55;;;2.10;99.90;;;;;;2085917;68;20744;-74
2022/03/03 01:04:47;;;;;;;76.88;37.85;;;1.60;99.90;;;;;;2108489;67;20445;-74
2022/03/03 01:07:29;;;;;;;86.70;41.50;;;1.60;99.90;;;;;;2113546;67;20339;-75
2022/03/03 01:10:12;;;;;;;70.78;36.95;;;1.50;99.90;;;;;;2103462;68;20335;-76
2022/03/03 01:12:54;;;;;;;74.15;37.67;;;1.50;99.90;;;;;;2089687;68;20826;-76
2022/03/03 01:15:36;;;;;;;70.40;36.58;;;1.40;99.90;;;;;;2086316;68;20325;-75
2022/03/03 01:18:19;;;;;;;73.05;37.15;;;1.40;99.90;;;;;;2104211;67;20199;-75
2022/03/03 01:21:03;;;;;;;70.45;37.65;;;1.40;99.90;;;;;;2092411;68;20762;-75
2022/03/03 01:23:45;;;;;;;73.05;37.97;;;1.40;99.90;;;;;;2089323;68;20333;-76
2022/03/03 01:26:27;;;;;;;81.65;41.15;;;1.30;99.90;;;;;;2090195;68;20267;-75
2022/03/03 01:29:09;;;;;;;71.18;37.13;;;1.30;99.90;;;;;;2090308;68;20295;-76
2022/03/03 01:31:51;;;;;;;68.32;37.58;;;1.20;99.90;;;;;;2090355;68;20574;-75
2022/03/03 01:34:33;;;;;;;70.78;37.78;;;1.20;99.90;;;;;;2097248;68;20219;-75
2022/03/03 01:37:16;;;;;;;73.35;36.60;;;1.10;99.90;;;;;;2096941;68;20438;-75
2022/03/03 01:39:58;;;;;;;76.00;38.13;;;1.10;99.90;;;;;;2090403;68;20245;-76
2022/03/03 01:42:40;;;;;;;77.28;39.28;;;1.40;99.90;;;;;;2090498;68;20296;-76
2022/03/03 01:45:22;;;;;;;77.38;38.72;;;1.00;99.90;;;;;;2082885;68;20196;-76
2022/03/03 01:48:03;;;;;;;81.25;39.70;;;1.00;99.90;;;;;;2075865;68;20322;-75
2022/03/03 01:50:45;;;;;;;69.60;38.10;;;1.00;99.90;;;;;;2082557;68;20809;-74
2022/03/03 01:53:28;;;;;;;74.82;40.45;;;1.00;99.90;;;;;;2096071;68;20210;-75
2022/03/03 01:56:13;;;;;;;76.05;41.03;;;1.00;99.90;;;;;;2090692;68;20326;-76
2022/03/03 01:58:55;;;;;;;73.57;37.95;;;1.60;99.90;;;;;;2091096;68;20194;-76
2022/03/03 02:01:37;;;;;;;77.28;38.70;;;1.00;99.90;;;;;;2089323;68;20197;-75
2022/03/03 02:04:21;;;;;;;77.30;38.92;;;1.00;99.90;;;;;;2092798;68;20255;-75
2022/03/03 02:07:07;;;;;;;84.22;39.22;;;0.90;99.90;;;;;;2095652;68;20192;-75
2022/03/03 02:09:52;;;;;;;75.15;38.03;;;0.90;99.90;;;;;;2096004;68;20707;-74
2022/03/03 02:12:34;;;;;;;75.78;37.92;;;0.90;99.90;;;;;;2089303;68;20803;-75
2022/03/03 02:15:21;;;;;;;67.47;35.75;;;0.90;99.90;;;;;;2077106;68;20730;-75
2022/03/03 02:18:03;;;;;;;64.20;34.22;;;0.90;99.90;;;;;;2059463;69;20367;-75
2022/03/03 02:20:47;;;;;;;70.90;39.08;;;0.90;99.90;;;;;;2054695;69;20367;-75
2022/03/03 02:23:29;;;;;;;65.63;35.17;;;0.80;99.90;;;;;;2072742;68;20356;-74
2022/03/03 02:26:34;;;;;;;70.90;36.40;;;0.80;99.90;;;;;;2081952;68;20393;-75
2022/03/03 02:29:16;;;;;;;66.38;35.13;;;0.80;99.90;;;;;;2089278;68;20286;-75
2022/03/03 02:31:58;;;;;;;67.45;35.80;;;0.70;99.90;;;;;;2080586;68;20208;-74
2022/03/03 02:34:47;;;;;;;67.68;35.75;;;0.70;99.90;;;;;;2073515;68;20832;-75
2022/03/03 02:37:39;;;;;;;73.18;37.25;;;0.90;99.90;;;;;;2068338;69;20340;-74
2022/03/03 02:40:20;;;;;;;67.68;34.88;;;0.70;99.90;;;;;;2070029;68;20372;-75
2022/03/03 02:43:03;;;;;;;68.03;35.20;;;0.70;99.90;;;;;;2084764;68;20669;-75
2022/03/03 02:45:47;;;;;;;69.75;35.83;;;0.60;99.90;;;;;;2088921;68;20262;-75
2022/03/03 02:48:30;;;;;;;72.60;37.30;;;0.60;99.90;;;;;;2089197;68;20360;-75
2022/03/03 02:51:12;;;;;;;70.95;35.60;;;0.60;99.90;;;;;;2085024;68;20316;-75
2022/03/03 02:53:54;;;;;;;67.15;34.45;;;0.60;99.90;;;;;;2080437;68;20239;-75
2022/03/03 02:57:53;;;;;;;71.90;35.72;;;0.60;99.90;;;;;;2072027;69;20800;-76
2022/03/03 02:59:39;;;;;;;62.72;35.03;;;0.60;99.90;;;;;;2070728;68;20247;-74
2022/03/03 03:02:22;;;;;;;71.07;35.08;;;0.50;99.90;;;;;;2091019;68;20195;-74
2022/03/03 03:05:07;;;;;;;66.45;34.40;;;0.50;99.90;;;;;;2097708;67;20301;-74
2022/03/03 03:07:48;;;;;;;68.32;35.08;;;0.50;99.90;;;;;;2104325;67;20201;-75
2022/03/03 03:10:30;;;;;;;62.33;33.13;;;0.50;99.90;;;;;;2097703;68;20273;-74
2022/03/03 03:13:14;;;;;;;58.50;34.88;;;0.50;99.90;;;;;;2085941;68;20184;-73
2022/03/03 03:15:56;;;;;;;61.30;34.05;;;0.50;99.90;;;;;;2090984;68;20192;-75
2022/03/03 03:18:40;;;;;;;68.32;35.70;;;0.50;99.90;;;;;;2090009;68;20228;-74
2022/03/03 03:21:22;;;;;;;61.75;32.10;;;1.00;99.90;;;;;;2074666;69;20327;-73
2022/03/03 03:24:05;;;;;;;59.78;32.58;;;0.50;99.90;;;;;;2081241;68;20353;-74
2022/03/03 03:26:48;;;;;;;65.90;34.60;;;0.50;99.90;;;;;;2102261;67;20194;-75
2022/03/03 03:29:32;;;;;;;68.07;35.97;;;0.50;99.90;;;;;;2103312;67;20262;-73
2022/03/03 03:32:14;;;;;;;58.22;32.35;;;0.40;99.90;;;;;;2105311;67;20427;-74
2022/03/03 03:34:56;;;;;;;61.28;34.55;;;0.40;99.90;;;;;;2106300;67;20356;-75
2022/03/03 03:37:38;;;;;;;69.07;34.42;;;0.40;99.90;;;;;;2104135;67;20264;-75
2022/03/03 03:40:20;;;;;;;63.72;33.78;;;0.40;99.90;;;;;;2111836;67;20324;-74
2022/03/03 03:43:02;;;;;;;72.85;35.80;;;0.40;99.90;;;;;;2110808;67;20521;-75
2022/03/03 03:45:44;;;;;;;59.28;33.80;;;0.40;99.90;;;;;;2115128;67;20222;-74
2022/03/03 03:48:25;;;;;;;66.93;34.58;;;0.40;99.90;;;;;;2105344;67;20326;-73
2022/03/03 03:51:36;;;;;;;63.55;34.08;;;0.40;99.90;;;;;;2124159;67;20388;-75
2022/03/03 03:54:18;;;;;;;71.75;36.65;;;0.40;99.90;;;;;;2119780;67;20334;-75
2022/03/03 03:57:00;;;;;;;63.88;31.67;;;0.40;99.90;;;;;;2115736;67;20290;-75
2022/03/03 03:59:45;;;;;;;64.13;32.67;;;0.30;99.90;;;;;;2111415;67;20851;-74
2022/03/03 04:02:27;;;;;;;62.08;33.22;;;0.30;99.90;;;;;;2110764;67;20368;-74
2022/03/03 04:05:10;;;;;;;62.15;33.30;;;0.30;99.90;;;;;;2097546;68;20221;-76
2022/03/03 04:07:52;;;;;;;62.97;33.55;;;0.30;99.90;;;;;;2117425;67;20356;-75
2022/03/03 04:10:55;;;;;;;61.60;32.10;;;0.30;99.90;;;;;;2100469;67;20305;-74
2022/03/03 04:13:37;;;;;;;65.07;34.13;;;0.30;99.90;;;;;;2103694;67;20190;-75
2022/03/03 04:16:19;;;;;;;60.15;31.17;;;0.30;99.90;;;;;;2094983;68;20263;-75
2022/03/03 04:19:01;;;;;;;55.83;31.52;;;0.30;99.90;;;;;;2104480;67;20373;-74
2022/03/03 04:21:42;;;;;;;58.30;32.22;;;0.30;99.90;;;;;;2104759;67;20258;-75
2022/03/03 04:24:24;;;;;;;54.03;31.38;;;0.30;99.90;;;;;;2117947;67;20384;-74
2022/03/03 04:27:06;;;;;;;55.00;31.00;;;0.30;99.90;;;;;;2125877;67;20640;-74
2022/03/03 04:29:48;;;;;;;51.55;28.45;;;0.30;99.90;;;;;;2120925;67;20389;-75
2022/03/03 04:32:30;;;;;;;54.97;28.20;;;0.40;99.90;;;;;;2110536;67;20286;-76
2022/03/03 04:35:13;;;;;;;51.13;28.42;;;0.40;99.90;;;;;;2117481;67;20214;-75
2022/03/03 04:37:54;;;;;;;50.92;29.20;;;0.40;99.90;;;;;;2124842;67;20589;-75
2022/03/03 04:40:36;;;;;;;52.67;27.52;;;0.40;99.90;;;;;;2131632;67;20312;-73
2022/03/03 04:43:18;;;;;;;53.22;27.45;;;0.40;99.90;;;;;;2134044;67;20195;-75
2022/03/03 04:46:00;;;;;;;50.45;28.88;;;0.40;99.90;;;;;;2125583;67;20232;-75
2022/03/03 04:48:41;;;;;;;47.95;27.70;;;0.40;99.90;;;;;;2117537;67;20775;-75
2022/03/03 04:51:23;;;;;;;49.92;28.15;;;0.40;99.90;;;;;;2102441;68;20849;-74
2022/03/03 04:54:05;;;;;;;48.92;27.73;;;0.30;99.90;;;;;;2083215;68;20172;-75
2022/03/03 04:56:47;;;;;;;46.90;27.50;;;0.30;99.90;;;;;;2096534;68;20175;-76
2022/03/03 04:59:28;;;;;;;52.40;29.20;;;0.30;99.90;;;;;;2097510;68;20175;-75
2022/03/03 05:02:11;;;;;;;52.92;29.98;;;0.30;99.90;;;;;;2112626;67;20199;-75
2022/03/03 05:04:52;;;;;;;53.28;28.08;;;0.20;99.90;;;;;;2120317;67;20366;-75
2022/03/03 05:07:34;;;;;;;52.25;29.75;;;0.10;99.90;;;;;;2105485;67;20237;-75
2022/03/03 05:10:17;;;;;;;51.70;29.70;;;0.20;99.90;;;;;;2104585;67;20200;-76
2022/03/03 05:13:04;;;;;;;46.50;27.98;;;0.10;99.90;;;;;;2102664;68;20278;-75
2022/03/03 05:15:47;;;;;;;47.03;28.50;;;0.10;99.90;;;;;;2123171;67;20321;-75
2022/03/03 05:18:31;;;;;;;52.40;29.13;;;0.10;99.90;;;;;;2116516;67;20739;-75
2022/03/03 05:21:13;;;;;;;49.63;27.30;;;0.00;99.90;;;;;;2116760;67;20302;-76
2022/03/03 05:23:55;;;;;;;50.35;27.77;;;0.10;99.90;;;;;;2110380;67;20173;-75
2022/03/03 05:26:36;;;;;;;48.38;27.92;;;0.00;99.90;;;;;;2103532;67;20251;-76
2022/03/03 05:29:18;;;;;;;50.50;29.20;;;0.00;99.90;;;;;;2098782;67;20183;-74
2022/03/03 05:32:01;;;;;;;53.75;29.88;;;0.00;99.90;;;;;;2097583;68;20182;-76
2022/03/03 05:34:46;;;;;;;47.95;27.83;;;0.00;99.90;;;;;;2109082;67;20409;-76
2022/03/03 05:37:28;;;;;;;45.92;27.65;;;-0.10;99.90;;;;;;2089563;68;20764;-74
2022/03/03 05:40:12;;;;;;;48.08;27.05;;;-0.10;99.90;;;;;;2098781;67;20174;-75
2022/03/03 05:42:55;;;;;;;50.25;27.75;;;-0.10;99.90;;;;;;2097492;68;20167;-75
2022/03/03 05:45:40;;;;;;;49.20;27.65;;;-0.10;99.90;;;;;;2097787;68;20322;-75
2022/03/03 05:48:23;;;;;;;47.40;26.55;;;-0.10;99.90;;;;;;2092299;68;20276;-74
2022/03/03 05:51:05;;;;;;;43.65;25.90;;;-0.10;99.90;;;;;;2102889;67;20468;-75
2022/03/03 05:53:48;;;;;;;46.67;28.13;;;0.00;99.90;;;;;;2109913;67;20387;-75
2022/03/03 05:56:39;;;;;;;49.47;27.77;;;-0.10;99.90;;;;;;2116787;67;20240;-75
2022/03/03 05:59:24;;;;;;;51.58;28.98;;;-0.20;99.90;;;;;;2117795;67;20268;-75
2022/03/03 06:02:06;;;;;;;49.28;26.73;;;-0.20;99.90;;;;;;2116663;67;20297;-75
2022/03/03 06:04:50;;;;;;;49.97;28.15;;;-0.20;99.90;;;;;;2117043;67;20704;-76
2022/03/03 06:07:37;;;;;;;51.65;28.30;;;-0.20;99.90;;;;;;2102131;67;20580;-75
2022/03/03 06:10:23;;;;;;;52.03;28.23;;;-0.20;99.90;;;;;;2116965;67;20161;-75
2022/03/03 06:13:20;;;;;;;50.33;28.50;;;-0.20;99.90;;;;;;2118450;67;20688;-75
2022/03/03 06:16:03;;;;;;;49.05;28.77;;;-0.10;99.90;;;;;;2113967;67;20658;-75
2022/03/03 06:18:47;;;;;;;50.40;27.95;;;-0.10;99.90;;;;;;2111378;67;20313;-75
2022/03/03 06:21:31;;;;;;;48.60;28.08;;;-0.10;99.90;;;;;;2110964;67;20314;-75
2022/03/03 06:24:15;;;;;;;49.72;27.88;;;-0.10;99.90;;;;;;2102875;67;20384;-75
2022/03/03 06:26:57;;;;;;;48.05;29.13;;;-0.10;99.90;;;;;;2096235;68;20179;-74
2022/03/03 06:29:43;;;;;;;51.10;28.40;;;-0.10;99.90;;;;;;2089255;68;20405;-75
2022/03/03 06:32:27;;;;;;;48.22;27.88;;;-0.10;99.90;;;;;;2081673;68;20499;-74
2022/03/03 06:35:09;;;;;;;52.60;29.50;;;-0.10;99.90;;;;;;2083481;68;20785;-76
2022/03/03 06:37:52;;;;;;;55.05;30.88;;;-0.10;99.90;;;;;;2081664;68;20200;-75
2022/03/03 06:40:37;;;;;;;51.67;30.92;;;-0.10;99.90;;;;;;2069816;68;20198;-75
2022/03/03 06:43:20;;;;;;;51.95;30.15;;;-0.10;99.90;;;;;;2097742;68;20318;-75
2022/03/03 06:46:05;;;;;;;53.80;30.80;;;0.20;99.90;;;;;;2101875;67;20733;-76
2022/03/03 06:48:47;;;;;;;51.55;31.27;;;-0.10;99.90;;;;;;2098175;68;20191;-74
2022/03/03 06:51:39;;;;;;;51.70;29.40;;;-0.10;99.90;;;;;;2097037;67;20339;-74
2022/03/03 06:54:24;;;;;;;53.92;30.90;;;-0.10;99.90;;;;;;2109509;67;20248;-75
2022/03/03 06:57:09;;;;;;;50.13;28.00;;;-0.10;99.90;;;;;;2110019;67;20178;-74
2022/03/03 06:59:52;;;;;;;56.47;30.95;;;0.00;99.90;;;;;;2109946;67;20224;-76
2022/03/03 07:02:40;;;;;;;54.85;30.10;;;0.00;99.90;;;;;;2116611;67;20433;-75
2022/03/03 07:05:22;;;;;;;51.97;30.58;;;0.00;99.90;;;;;;2107876;67;20293;-75
2022/03/03 07:08:05;;;;;;;53.90;29.88;;;0.00;99.90;;;;;;2122661;67;20567;-75
2022/03/03 07:10:50;;;;;;;57.05;31.00;;;0.10;99.90;;;;;;2128659;67;20462;-75
2022/03/03 07:13:38;;;;;;;57.45;29.63;;;0.10;99.90;;;;;;2108895;67;20262;-77
2022/03/03 07:16:32;;;;;;;57.65;30.80;;;0.10;99.90;;;;;;2100776;68;20272;-76
2022/03/03 07:19:25;;;;;;;55.83;29.38;;;0.20;99.90;;;;;;2093589;68;20311;-74
2022/03/03 07:22:18;;;;;;;55.13;29.55;;;0.20;99.90;;;;;;2085441;68;20298;-75
2022/03/03 07:25:27;;;;;;;47.35;29.73;;;0.30;99.90;;;;;;2093589;68;20268;-75
2022/03/03 07:28:12;;;;;;;55.28;29.13;;;0.30;99.90;;;;;;2078468;68;20805;-75
2022/03/03 07:30:54;;;;;;;52.83;29.30;;;0.40;99.90;;;;;;2069013;69;20457;-75
2022/03/03 07:33:54;;;;;;;60.17;29.58;;;0.60;99.90;;;;;;2059369;69;20187;-75
2022/03/03 07:36:40;;;;;;;51.60;27.65;;;0.50;99.90;;;;;;2065630;69;20346;-76
2022/03/03 07:39:30;;;;;;;55.95;30.65;;;0.60;99.90;;;;;;2061161;69;20187;-77
2022/03/03 07:42:18;;;;;;;56.47;30.38;;;0.60;99.90;;;;;;2067846;69;20262;-76
2022/03/03 07:45:03;;;;;;;51.42;28.85;;;0.60;99.90;;;;;;2053254;69;20443;-75
2022/03/03 07:47:50;;;;;;;56.03;29.52;;;0.70;99.90;;;;;;2061115;69;20357;-76
2022/03/03 07:50:39;;;;;;;57.35;29.17;;;0.80;99.90;;;;;;2055183;69;20359;-75
2022/03/03 07:53:23;;;;;;;50.67;29.05;;;1.00;99.90;;;;;;2062431;69;20244;-75
2022/03/03 07:56:09;;;;;;;51.90;29.55;;;0.80;99.90;;;;;;2075164;68;20312;-76
2022/03/03 07:58:56;;;;;;;50.30;28.02;;;0.90;99.90;;;;;;2072126;68;20349;-76
2022/03/03 08:01:41;;;;;;;50.60;28.38;;;1.00;99.90;;;;;;2074783;68;20371;-76
2022/03/03 08:04:28;;;;;;;47.63;28.38;;;1.10;99.90;;;;;;2072709;68;20196;-76
2022/03/03 08:07:11;;;;;;;49.63;28.80;;;1.20;99.90;;;;;;2080852;68;20352;-76
2022/03/03 08:10:02;;;;;;;49.72;29.92;;;1.20;99.90;;;;;;2083962;68;20195;-75
2022/03/03 08:12:43;;;;;;;52.20;27.50;;;1.30;99.90;;;;;;2082079;68;20713;-76
2022/03/03 08:15:26;;;;;;;50.65;26.63;;;1.30;99.90;;;;;;2091416;68;20349;-75
2022/03/03 08:18:09;;;;;;;43.33;25.50;;;1.40;99.90;;;;;;2088233;68;20272;-75
2022/03/03 08:20:52;;;;;;;49.17;26.67;;;1.50;99.90;;;;;;2087299;68;21658;-79
2022/03/03 08:23:34;;;;;;;47.35;26.92;;;1.60;99.90;;;;;;2090958;68;20844;-75
2022/03/03 08:26:17;;;;;;;45.22;25.85;;;1.60;99.90;;;;;;2083429;68;20200;-83
2022/03/03 08:28:59;;;;;;;45.85;25.83;;;1.70;99.90;;;;;;2082760;68;20175;-81
2022/03/03 08:32:16;;;;;;;39.53;25.05;;;1.80;99.90;;;;;;2082303;68;20263;-82
2022/03/03 08:35:35;;;;;;;44.78;25.15;;;1.80;99.90;;;;;;2084591;68;21206;-82
2022/03/03 08:38:23;;;;;;;48.53;24.20;;;2.00;99.90;;;;;;2089159;68;20231;-81
2022/03/03 08:41:10;;;;;;;41.92;23.75;;;2.80;99.90;;;;;;2079048;68;20252;-83
2022/03/03 08:43:52;;;;;;;41.33;24.67;;;2.20;99.90;;;;;;2078323;68;20767;-83
2022/03/03 08:46:37;;;;;;;40.22;23.70;;;2.60;99.90;;;;;;2099658;67;20355;-80
2022/03/03 08:49:20;;;;;;;40.72;26.25;;;2.40;99.90;;;;;;2103748;67;20343;-81
2022/03/03 08:52:05;;;;;;;40.03;24.38;;;2.50;99.90;;;;;;2097922;68;20246;-84
2022/03/03 08:54:57;;;;;;;47.33;24.27;;;2.60;99.90;;;;;;2088013;68;20304;-83
2022/03/03 08:57:42;;;;;;;38.58;23.38;;;2.70;99.90;;;;;;2094033;68;20266;-84
2022/03/03 09:00:40;;;;;;;38.75;24.50;;;2.80;99.90;;;;;;2097878;67;20197;-86
2022/03/03 09:06:43;;;;;;;41.15;24.67;;;2.80;99.90;;;;;;2119674;67;20189;-82
2022/03/03 09:09:22;;;;;;;41.80;25.67;;;3.10;99.90;;;;;;2110583;67;20252;-82
2022/03/03 09:12:01;;;;;;;40.25;23.70;;;3.30;99.90;;;;;;2107807;67;20218;-84
2022/03/03 09:14:41;;;;;;;36.55;22.77;;;3.20;99.90;;;;;;2098228;67;20232;-83
2022/03/03 09:17:31;;;;;;;36.10;23.17;;;3.40;99.90;;;;;;2116556;67;20776;-81
2022/03/03 09:20:14;;;;;;;34.08;23.25;;;3.40;99.90;;;;;;2127229;67;20760;-84
2022/03/03 09:22:50;;;;;;;43.72;25.60;;;3.60;99.90;;;;;;2132962;66;20474;-84
2022/03/03 09:25:27;;;;;;;35.65;23.67;;;3.70;99.90;;;;;;2139873;66;20197;-85
2022/03/03 09:28:05;;;;;;;40.42;24.15;;;3.60;99.90;;;;;;2148564;66;20367;-85
2022/03/03 09:30:44;;;;;;;34.38;22.05;;;3.80;99.90;;;;;;2156991;66;20293;-86
2022/03/03 09:33:14;;;;;;;33.25;22.15;;;3.80;99.90;;;;;;2159323;66;20853;-82
2022/03/03 09:35:52;;;;;;;38.67;21.38;;;4.50;99.90;;;;;;2160058;66;20218;-80
2022/03/03 09:38:44;;;;;;;38.60;24.75;;;5.00;99.90;;;;;;2161800;66;20468;-82
2022/03/03 09:41:22;;;;;;;37.70;22.55;;;3.90;99.90;;;;;;2161216;66;20377;-81
2022/03/03 09:43:58;;;;;;;35.22;23.45;;;4.00;99.90;;;;;;2189316;64;20546;-79
2022/03/03 09:46:49;;;;;;;35.70;21.13;;;4.60;99.90;;;;;;2188471;65;20273;-81
2022/03/03 09:49:27;;;;;;;34.08;21.35;;;4.20;99.90;;;;;;2185620;65;20198;-84
2022/03/03 09:52:17;;;;;;;36.40;22.35;;;4.40;99.90;;;;;;2187341;65;20650;-81
2022/03/03 09:54:57;;;;;;;38.78;23.17;;;4.40;99.90;;;;;;2187726;65;20202;-83
2022/03/03 09:57:49;;;;;;;31.13;21.48;;;4.50;99.90;;;;;;2174069;65;20807;-82
2022/03/03 10:00:33;;;;;;;41.20;21.50;;;4.60;99.90;;;;;;2167483;65;20223;-81
2022/03/03 10:03:19;;;;;;;31.58;21.45;;;4.70;99.90;;;;;;2167477;65;20365;-81
2022/03/03 10:06:12;;;;;;;32.20;18.25;;;4.80;99.90;;;;;;2160237;66;20310;-82
2022/03/03 10:08:56;;;;;;;28.23;18.55;;;4.90;99.90;;;;;;2146464;66;20198;-81
2022/03/03 10:12:04;;;;;;;29.92;18.65;;;5.00;99.90;;;;;;2146371;66;20206;-83
2022/03/03 10:14:48;;;;;;;23.08;16.45;;;5.20;99.90;;;;;;2139396;66;20641;-81
2022/03/03 10:17:38;;;;;;;30.02;18.25;;;5.30;99.90;;;;;;2146080;66;20269;-81
2022/03/03 10:20:23;;;;;;;21.60;15.70;;;5.40;99.90;;;;;;2131675;67;20794;-81
2022/03/03 10:23:08;;;;;;;21.95;15.75;;;5.50;99.90;;;;;;2120135;67;20344;-80
2022/03/03 10:25:53;;;;;;;25.57;17.07;;;5.60;99.90;;;;;;2109229;67;20822;-79
2022/03/03 10:28:37;;;;;;;23.67;15.05;;;5.70;99.90;;;;;;2117354;67;20336;-81
2022/03/03 10:31:22;;;;;;;22.60;14.70;;;5.80;99.90;;;;;;2108209;67;20224;-79
2022/03/03 10:34:05;;;;;;;26.65;15.82;;;5.90;99.90;;;;;;2089042;68;20377;-79
2022/03/03 10:37:01;;;;;;;23.50;15.80;;;6.00;99.90;;;;;;2087229;68;20195;-82
2022/03/03 10:39:48;;;;;;;25.40;17.02;;;6.10;99.90;;;;;;2088237;68;20676;-80
2022/03/03 10:42:48;;;;;;;22.88;16.42;;;6.30;99.90;;;;;;2104637;67;20342;-80
2022/03/03 10:45:29;;;;;;;25.13;15.30;;;6.40;99.90;;;;;;2106513;67;20699;-80
2022/03/03 10:48:26;;;;;;;22.23;15.98;;;6.50;99.90;;;;;;2105569;67;20367;-79
2022/03/03 10:50:56;;;;;;;22.83;15.82;;;6.80;99.90;;;;;;2112310;67;20294;-80
2022/03/03 10:53:36;;;;;;;23.80;15.98;;;6.90;99.90;;;;;;2118516;67;20347;-80
2022/03/03 10:56:17;;;;;;;19.30;14.43;;;7.10;99.90;;;;;;2124390;67;20277;-78
2022/03/03 10:58:57;;;;;;;26.30;16.05;;;7.40;99.90;;;;;;2126127;67;20294;-81
2022/03/03 11:01:34;;;;;;;22.77;16.13;;;7.80;99.90;;;;;;2126288;66;20180;-82
2022/03/03 11:04:24;;;;;;;24.77;16.45;;;8.00;99.90;;;;;;2139058;66;20237;-83
2022/03/03 11:07:04;;;;;;;20.92;15.32;;;8.40;99.90;;;;;;2144216;66;20225;-80
2022/03/03 11:09:41;;;;;;;23.27;15.73;;;8.80;99.90;;;;;;2153408;65;20294;-82
2022/03/03 11:12:20;;;;;;;19.73;14.60;;;9.20;99.90;;;;;;2173590;65;20218;-80
2022/03/03 11:14:59;;;;;;;18.77;14.13;;;9.70;99.90;;;;;;2197439;65;20267;-80
2022/03/03 11:17:36;;;;;;;20.13;14.65;;;10.10;99.90;;;;;;2196744;65;20602;-82
2022/03/03 11:20:13;;;;;;;21.20;15.50;;;10.50;99.90;;;;;;2191791;65;20665;-76
2022/03/03 11:22:41;;;;;;;17.23;14.23;;;10.90;99.90;;;;;;2197224;65;21175;-79
2022/03/03 11:25:34;;;;;;;21.77;16.17;;;11.30;99.00;;;;;;2186208;65;20370;-76
2022/03/03 11:28:35;;;;;;;19.92;15.43;;;11.80;96.30;;;;;;2182025;65;20202;-76
2022/03/03 11:31:58;;;;;;;19.15;15.73;;;12.20;93.10;;;;;;2165810;66;20754;-77
2022/03/03 11:34:44;;;;;;;21.48;17.45;;;12.70;91.60;;;;;;2143645;66;20192;-76
2022/03/03 11:37:28;;;;;;;20.95;15.60;;;13.10;87.40;;;;;;2143957;66;20256;-78
2022/03/03 11:40:06;;;;;;;17.17;14.55;;;13.50;81.50;;;;;;2144011;66;20626;-75
2022/03/03 11:42:53;;;;;;;20.77;15.63;;;13.80;76.60;;;;;;2143354;66;20293;-77
2022/03/03 11:45:42;;;;;;;18.55;15.52;;;14.00;76.10;;;;;;2153027;66;20251;-75
2022/03/03 11:48:36;;;;;;;18.70;16.35;;;14.30;73.60;;;;;;2140196;66;20356;-76
2022/03/03 11:51:34;;;;;;;22.98;17.85;;;14.70;71.40;;;;;;2127020;67;20339;-76
2022/03/03 11:54:26;;;;;;;21.08;17.65;;;15.10;70.50;;;;;;2118386;67;20484;-81
2022/03/03 11:57:07;;;;;;;23.17;17.70;;;15.50;69.50;;;;;;2132036;67;20348;-80
2022/03/03 11:59:49;;;;;;;19.63;16.90;;;16.00;66.80;;;;;;2133708;67;20863;-81
2022/03/03 12:02:34;;;;;;;20.40;16.27;;;16.30;65.20;;;;;;2125239;67;20263;-79
2022/03/03 12:05:33;;;;;;;19.20;16.35;;;16.70;63.10;;;;;;2112171;67;20889;-80
2022/03/03 12:08:17;;;;;;;18.60;16.17;;;17.10;61.40;;;;;;2109920;67;20650;-80
2022/03/03 12:11:17;;;;;;;22.00;16.75;;;17.30;59.50;;;;;;2105059;67;20225;-77
2022/03/03 12:14:00;;;;;;;19.58;17.30;;;17.70;58.70;;;;;;2103319;67;20310;-82
2022/03/03 12:16:46;;;;;;;21.00;17.65;;;18.00;56.70;;;;;;2100231;67;20223;-81
2022/03/03 12:19:37;;;;;;;19.23;16.58;;;18.30;55.20;;;;;;2109246;67;20654;-77
2022/03/03 12:22:25;;;;;;;22.95;17.40;;;18.70;53.10;;;;;;2100551;67;20272;-78
2022/03/03 12:25:08;;;;;;;19.55;16.13;;;18.90;51.70;;;;;;2107725;67;20222;-80
2022/03/03 12:28:18;;;;;;;19.05;15.63;;;18.90;51.20;;;;;;2105891;67;21246;-81
2022/03/03 12:30:59;;;;;;;20.30;16.92;;;19.20;51.40;;;;;;2100952;67;20205;-80
2022/03/03 12:34:01;;;;;;;17.85;16.05;;;19.30;50.10;;;;;;2089357;68;20361;-80
2022/03/03 12:36:44;;;;;;;17.75;15.80;;;19.70;49.70;;;;;;2089778;68;20255;-79
2022/03/03 12:39:28;;;;;;;19.90;17.55;;;20.10;48.90;;;;;;2096278;68;20210;-79
2022/03/03 12:42:13;;;;;;;18.98;16.98;;;20.60;47.40;;;;;;2090704;68;20202;-79
2022/03/03 12:45:02;;;;;;;18.77;16.80;;;20.80;46.40;;;;;;2078531;68;20208;-80
2022/03/03 12:47:49;;;;;;;19.33;17.38;;;21.20;45.80;;;;;;2071539;68;20318;-81
2022/03/03 12:50:33;;;;;;;17.10;15.30;;;21.50;45.10;;;;;;2079556;68;20188;-79
2022/03/03 12:53:17;;;;;;;16.92;15.15;;;21.80;44.40;;;;;;2090204;68;20372;-79
2022/03/03 12:55:59;;;;;;;18.75;16.92;;;22.10;44.30;;;;;;2097109;68;20202;-80
2022/03/03 12:58:46;;;;;;;16.05;14.45;;;22.30;43.90;;;;;;2089815;68;20208;-80
2022/03/03 13:01:28;;;;;;;16.35;14.65;;;22.40;43.40;;;;;;2077256;68;20286;-78
2022/03/03 13:04:14;;;;;;;16.13;14.43;;;22.70;41.90;;;;;;2082758;68;20275;-77
2022/03/03 13:07:10;;;;;;;15.70;14.10;;;23.00;41.50;;;;;;2094231;68;20320;-82
2022/03/03 13:09:56;;;;;;;13.80;12.40;;;23.40;39.60;;;;;;2100774;67;20242;-79
2022/03/03 13:12:46;;;;;;;15.63;13.80;;;23.40;38.70;;;;;;2098783;67;20625;-81
2022/03/03 13:15:31;;;;;;;14.85;13.40;;;23.70;39.80;;;;;;2101517;67;20241;-78
2022/03/03 13:18:20;;;;;;;13.43;12.02;;;24.20;37.40;;;;;;2088823;68;20263;-79
2022/03/03 13:21:04;;;;;;;12.07;10.88;;;24.50;36.70;;;;;;2085492;68;20242;-81
2022/03/03 13:23:56;;;;;;;21.80;11.82;;;24.80;36.50;;;;;;2088524;68;20203;-78
2022/03/03 13:26:49;;;;;;;12.90;11.30;;;25.10;34.80;;;;;;2076686;68;20284;-78
2022/03/03 13:29:32;;;;;;;13.15;11.73;;;25.10;36.20;;;;;;2070227;68;20271;-78
2022/03/03 13:32:16;;;;;;;14.15;12.80;;;25.10;35.70;;;;;;2065391;68;20358;-79
2022/03/03 13:35:02;;;;;;;17.67;13.65;;;25.30;35.50;;;;;;2076090;68;20180;-79
2022/03/03 13:37:47;;;;;;;14.45;12.95;;;25.40;36.50;;;;;;2076983;68;20427;-76
2022/03/03 13:40:31;;;;;;;15.70;13.50;;;25.50;36.20;;;;;;2075055;68;20367;-80
2022/03/03 13:43:29;;;;;;;14.93;13.38;;;25.70;35.90;;;;;;2070142;68;20356;-80
2022/03/03 13:46:11;;;;;;;15.45;13.85;;;25.80;35.60;;;;;;2069937;68;20248;-80
2022/03/03 13:48:56;;;;;;;14.73;13.15;;;26.00;34.70;;;;;;2070229;68;20232;-78
2022/03/03 13:51:37;;;;;;;;;;;26.10;34.40;;;;;;2085627;68;20299;-80
2022/03/03 13:54:25;;;;;;;14.48;12.98;;;26.20;36.30;;;;;;2082109;68;20618;-80
2022/03/03 13:57:38;;;;;;;13.90;11.48;;;25.80;33.90;;;;;;2096343;68;20783;-80
2022/03/03 14:00:35;;;;;;;12.50;11.27;;;26.20;32.70;;;;;;2091200;68;20625;-79
2022/03/03 14:03:33;;;;;;;12.73;11.20;;;26.00;33.10;;;;;;2097035;68;20434;-80
2022/03/03 14:06:18;;;;;;;12.73;11.45;;;25.60;32.50;;;;;;2096575;68;20195;-81
2022/03/03 14:09:02;;;;;;;16.90;12.45;;;25.50;32.80;;;;;;2099903;67;20376;-75